createdAt,value
2022-10-28T00:00:13.449Z,56.24
2022-10-28T00:01:13.485Z,58.65
2022-10-28T00:02:13.466Z,56.88
2022-10-28T00:03:13.420Z,57.36
2022-10-28T00:04:13.401Z,58.49
2022-10-28T00:05:13.387Z,58.01
2022-10-28T00:06:13.400Z,57.20
2022-10-28T00:07:13.375Z,57.20
2022-10-28T00:08:13.367Z,57.20
2022-10-28T00:09:13.358Z,57.20
2022-10-28T00:10:13.340Z,55.43
2022-10-28T00:11:13.357Z,54.46
2022-10-28T00:12:13.328Z,56.40
2022-10-28T00:13:13.323Z,54.95
2022-10-28T00:14:13.303Z,54.95
2022-10-28T00:15:13.298Z,56.24
2022-10-28T00:16:13.311Z,57.69
2022-10-28T00:17:13.328Z,57.85
2022-10-28T00:18:13.264Z,55.43
2022-10-28T00:19:13.251Z,55.43
2022-10-28T00:20:13.272Z,55.27
2022-10-28T00:21:13.236Z,53.98
2022-10-28T00:22:13.234Z,56.24
2022-10-28T00:23:13.220Z,54.30
2022-10-28T00:24:13.204Z,54.46
2022-10-28T00:25:13.197Z,54.62
2022-10-28T00:26:13.204Z,54.95
2022-10-28T00:27:13.200Z,56.56
2022-10-28T00:28:13.185Z,55.75
2022-10-28T00:29:13.168Z,54.95
2022-10-28T00:30:13.135Z,58.17
2022-10-28T00:31:13.130Z,56.07
2022-10-28T00:32:13.147Z,54.14
2022-10-28T00:33:13.132Z,55.11
2022-10-28T00:34:13.107Z,54.30
2022-10-28T00:35:13.100Z,58.97
2022-10-28T00:36:13.086Z,56.88
2022-10-28T00:37:13.094Z,55.75
2022-10-28T00:38:13.065Z,55.75
2022-10-28T00:39:13.053Z,54.95
2022-10-28T00:40:13.060Z,54.79
2022-10-28T00:41:13.028Z,56.40
2022-10-28T00:42:13.043Z,55.43
2022-10-28T00:43:13.022Z,55.11
2022-10-28T00:44:13.009Z,55.91
2022-10-28T00:45:12.994Z,56.40
2022-10-28T00:46:13.025Z,56.72
2022-10-28T00:47:12.998Z,56.07
2022-10-28T00:48:13.971Z,55.91
2022-10-28T00:49:12.958Z,55.59
2022-10-28T00:50:12.959Z,54.95
2022-10-28T00:51:12.940Z,57.04
2022-10-28T00:52:12.952Z,54.95
2022-10-28T00:53:12.979Z,57.69
2022-10-28T00:54:12.909Z,55.43
2022-10-28T00:55:12.898Z,55.27
2022-10-28T00:56:12.933Z,56.40
2022-10-28T00:57:12.896Z,59.30
2022-10-28T00:58:12.877Z,55.43
2022-10-28T00:59:12.864Z,58.49
2022-10-28T01:00:12.860Z,57.20
2022-10-28T01:01:12.876Z,58.17
2022-10-28T01:02:12.948Z,55.59
2022-10-28T01:03:12.818Z,54.46
2022-10-28T01:04:12.817Z,54.14
2022-10-28T01:05:12.799Z,54.14
2022-10-28T01:06:12.790Z,56.72
2022-10-28T01:07:12.804Z,53.66
2022-10-28T01:08:12.777Z,53.33
2022-10-28T01:09:12.807Z,57.52
2022-10-28T01:10:12.752Z,54.79
2022-10-28T01:11:12.752Z,54.79
2022-10-28T01:12:12.749Z,55.59
2022-10-28T01:13:12.716Z,55.27
2022-10-28T01:14:12.708Z,57.04
2022-10-28T01:15:12.696Z,56.40
2022-10-28T01:16:12.692Z,58.33
2022-10-28T01:17:12.690Z,56.40
2022-10-28T01:18:12.670Z,54.95
2022-10-28T01:19:12.657Z,56.72
2022-10-28T01:20:12.657Z,54.46
2022-10-28T01:21:12.623Z,55.11
2022-10-28T01:22:12.655Z,56.40
2022-10-28T01:23:12.623Z,56.56
2022-10-28T01:24:12.605Z,56.88
2022-10-28T01:25:12.598Z,56.56
2022-10-28T01:26:12.587Z,54.79
2022-10-28T01:27:12.594Z,55.91
2022-10-28T01:28:12.566Z,57.52
2022-10-28T01:29:12.559Z,58.01
2022-10-28T01:30:12.543Z,58.49
2022-10-28T01:31:12.535Z,58.97
2022-10-28T01:32:12.538Z,59.94
2022-10-28T01:33:12.519Z,59.94
2022-10-28T01:34:12.505Z,59.94
2022-10-28T01:35:12.488Z,59.62
2022-10-28T01:36:13.518Z,58.01
2022-10-28T01:37:12.474Z,59.78
2022-10-28T01:38:12.490Z,57.85
2022-10-28T01:39:12.460Z,59.14
2022-10-28T01:40:12.445Z,59.14
2022-10-28T01:41:12.428Z,58.33
2022-10-28T01:42:12.455Z,59.94
2022-10-28T01:43:12.422Z,57.85
2022-10-28T01:44:12.414Z,58.01
2022-10-28T01:45:12.390Z,56.72
2022-10-28T01:46:12.394Z,56.88
2022-10-28T01:47:12.400Z,59.30
2022-10-28T01:48:12.378Z,58.49
2022-10-28T01:49:12.361Z,55.43
2022-10-28T01:50:12.355Z,56.40
2022-10-28T01:51:12.336Z,57.69
2022-10-28T01:52:12.356Z,58.01
2022-10-28T01:53:12.313Z,56.88
2022-10-28T01:54:12.306Z,57.36
2022-10-28T01:55:12.305Z,57.69
2022-10-28T01:56:12.344Z,58.01
2022-10-28T01:57:12.299Z,59.46
2022-10-28T01:58:12.364Z,58.01
2022-10-28T01:59:12.263Z,58.01
2022-10-28T02:00:12.252Z,58.01
2022-10-28T02:01:12.379Z,57.04
2022-10-28T02:02:12.246Z,57.20
2022-10-28T02:03:12.217Z,56.24
2022-10-28T02:04:12.212Z,56.40
2022-10-28T02:05:12.193Z,56.40
2022-10-28T02:06:12.188Z,56.88
2022-10-28T02:07:12.195Z,53.98
2022-10-28T02:08:12.168Z,55.75
2022-10-28T02:09:12.160Z,55.91
2022-10-28T02:10:12.146Z,57.20
2022-10-28T02:11:12.137Z,56.72
2022-10-28T02:12:12.149Z,54.95
2022-10-28T02:13:12.119Z,58.01
2022-10-28T02:14:12.185Z,56.88
2022-10-28T02:15:12.102Z,53.66
2022-10-28T02:16:12.105Z,55.43
2022-10-28T02:17:12.072Z,54.46
2022-10-28T02:18:12.073Z,58.49
2022-10-28T02:19:12.055Z,57.04
2022-10-28T02:20:12.046Z,56.88
2022-10-28T02:21:12.042Z,55.27
2022-10-28T02:22:12.023Z,55.91
2022-10-28T02:23:12.018Z,56.40
2022-10-28T02:24:12.002Z,58.17
2022-10-28T02:25:11.995Z,58.01
2022-10-28T02:26:12.007Z,56.40
2022-10-28T02:27:11.970Z,54.95
2022-10-28T02:28:11.999Z,54.46
2022-10-28T02:29:11.947Z,54.62
2022-10-28T02:30:11.945Z,57.69
2022-10-28T02:31:11.960Z,55.43
2022-10-28T02:32:12.922Z,58.01
2022-10-28T02:33:11.912Z,55.11
2022-10-28T02:34:11.909Z,57.85
2022-10-28T02:35:11.894Z,56.72
2022-10-28T02:36:11.900Z,57.20
2022-10-28T02:37:11.868Z,58.81
2022-10-28T02:38:11.871Z,56.07
2022-10-28T02:39:11.851Z,56.40
2022-10-28T02:40:11.848Z,57.69
2022-10-28T02:41:11.856Z,57.36
2022-10-28T02:42:11.853Z,58.65
2022-10-28T02:43:11.816Z,58.33
2022-10-28T02:44:11.810Z,58.17
2022-10-28T02:45:11.809Z,59.46
2022-10-28T02:46:11.807Z,60.75
2022-10-28T02:47:11.787Z,59.30
2022-10-28T02:48:11.765Z,58.01
2022-10-28T02:49:11.758Z,57.69
2022-10-28T02:50:11.752Z,60.26
2022-10-28T02:51:11.751Z,57.85
2022-10-28T02:52:11.773Z,57.52
2022-10-28T02:53:11.716Z,58.49
2022-10-28T02:54:11.707Z,57.52
2022-10-28T02:55:11.697Z,59.14
2022-10-28T02:56:11.732Z,61.07
2022-10-28T02:57:11.672Z,54.46
2022-10-28T02:58:11.666Z,59.14
2022-10-28T02:59:11.670Z,58.65
2022-10-28T03:00:11.647Z,59.46
2022-10-28T03:01:11.817Z,58.97
2022-10-28T03:02:11.686Z,58.49
2022-10-28T03:03:11.617Z,59.62
2022-10-28T03:04:11.609Z,58.97
2022-10-28T03:05:11.596Z,58.01
2022-10-28T03:06:11.609Z,55.91
2022-10-28T03:07:11.577Z,55.91
2022-10-28T03:08:11.570Z,58.33
2022-10-28T03:09:11.554Z,60.26
2022-10-28T03:10:11.552Z,61.07
2022-10-28T03:11:11.568Z,60.59
2022-10-28T03:12:11.531Z,59.62
2022-10-28T03:13:11.526Z,59.30
2022-10-28T03:14:14.580Z,58.81
2022-10-28T03:15:11.502Z,58.65
2022-10-28T03:16:11.514Z,59.94
2022-10-28T03:17:11.467Z,59.46
2022-10-28T03:18:11.466Z,59.94
2022-10-28T03:19:11.465Z,59.46
2022-10-28T03:20:11.442Z,60.91
2022-10-28T03:21:11.454Z,59.46
2022-10-28T03:22:11.421Z,59.30
2022-10-28T03:23:11.409Z,58.17
2022-10-28T03:24:11.472Z,59.46
2022-10-28T03:25:11.387Z,58.97
2022-10-28T03:26:11.381Z,61.39
2022-10-28T03:27:11.382Z,59.94
2022-10-28T03:28:11.367Z,59.78
2022-10-28T03:29:11.351Z,61.23
2022-10-28T03:30:11.340Z,61.55
2022-10-28T03:31:11.325Z,61.23
2022-10-28T03:32:11.386Z,61.87
2022-10-28T03:33:11.304Z,61.71
2022-10-28T03:34:11.301Z,61.07
2022-10-28T03:35:11.293Z,61.87
2022-10-28T03:36:11.271Z,61.87
2022-10-28T03:37:11.295Z,60.10
2022-10-28T03:38:11.258Z,60.91
2022-10-28T03:39:11.249Z,61.23
2022-10-28T03:40:11.243Z,59.94
2022-10-28T03:41:11.232Z,60.59
2022-10-28T03:42:11.231Z,59.62
2022-10-28T03:43:11.208Z,60.59
2022-10-28T03:44:11.198Z,60.75
2022-10-28T03:45:11.182Z,58.65
2022-10-28T03:46:11.177Z,61.55
2022-10-28T03:47:11.175Z,61.39
2022-10-28T03:48:11.154Z,61.87
2022-10-28T03:49:11.160Z,62.36
2022-10-28T03:50:11.155Z,61.87
2022-10-28T03:51:11.131Z,62.20
2022-10-28T03:52:11.149Z,60.91
2022-10-28T03:53:11.121Z,60.10
2022-10-28T03:54:11.105Z,60.59
2022-10-28T03:55:11.097Z,61.39
2022-10-28T03:56:11.072Z,61.55
2022-10-28T03:57:11.093Z,57.85
2022-10-28T03:58:11.064Z,61.55
2022-10-28T03:59:11.751Z,59.46
2022-10-28T04:00:11.048Z,61.07
2022-10-28T04:01:11.198Z,59.78
2022-10-28T04:02:11.216Z,61.39
2022-10-28T04:03:11.013Z,60.59
2022-10-28T04:04:10.991Z,61.07
2022-10-28T04:05:10.993Z,62.20
2022-10-28T04:06:10.997Z,62.04
2022-10-28T04:07:42.975Z,61.55
2022-10-28T04:08:10.991Z,63.81
2022-10-28T04:09:10.954Z,61.07
2022-10-28T04:10:10.940Z,60.91
2022-10-28T04:11:10.934Z,61.55
2022-10-28T04:12:10.947Z,61.39
2022-10-28T04:13:10.918Z,63.33
2022-10-28T04:14:10.905Z,63.65
2022-10-28T04:15:10.898Z,62.20
2022-10-28T04:16:10.891Z,62.84
2022-10-28T04:17:10.891Z,62.20
2022-10-28T04:18:10.862Z,62.84
2022-10-28T04:19:10.860Z,62.68
2022-10-28T04:20:10.850Z,63.49
2022-10-28T04:21:10.855Z,63.00
2022-10-28T04:22:10.846Z,63.33
2022-10-28T04:23:10.816Z,64.13
2022-10-28T04:24:10.810Z,63.81
2022-10-28T04:25:10.838Z,63.81
2022-10-28T04:26:10.789Z,63.65
2022-10-28T04:27:10.788Z,62.68
2022-10-28T04:28:10.767Z,62.68
2022-10-28T04:29:10.760Z,63.97
2022-10-28T04:30:10.750Z,61.71
2022-10-28T04:31:10.751Z,63.65
2022-10-28T04:32:10.750Z,63.81
2022-10-28T04:33:10.717Z,64.13
2022-10-28T04:34:10.703Z,63.16
2022-10-28T04:35:10.698Z,64.61
2022-10-28T04:36:10.695Z,62.68
2022-10-28T04:37:10.702Z,63.00
2022-10-28T04:38:10.754Z,63.33
2022-10-28T04:39:10.660Z,64.13
2022-10-28T04:40:10.650Z,62.84
2022-10-28T04:41:10.641Z,62.68
2022-10-28T04:42:10.672Z,62.36
2022-10-28T04:43:10.621Z,63.16
2022-10-28T04:44:10.606Z,62.84
2022-10-28T04:45:10.599Z,62.84
2022-10-28T04:46:10.579Z,61.87
2022-10-28T04:47:10.584Z,62.68
2022-10-28T04:48:10.562Z,62.36
2022-10-28T04:49:10.559Z,60.26
2022-10-28T04:50:10.536Z,60.75
2022-10-28T04:51:10.536Z,62.52
2022-10-28T04:52:13.396Z,62.20
2022-10-28T04:53:11.532Z,61.07
2022-10-28T04:54:10.505Z,60.59
2022-10-28T04:55:11.408Z,61.23
2022-10-28T04:56:10.493Z,60.59
2022-10-28T04:57:10.498Z,60.91
2022-10-28T04:58:10.459Z,61.39
2022-10-28T04:59:10.462Z,60.59
2022-10-28T05:00:10.440Z,62.84
2022-10-28T05:01:10.577Z,59.46
2022-10-28T05:02:10.525Z,58.49
2022-10-28T05:03:10.418Z,60.59
2022-10-28T05:04:10.415Z,62.52
2022-10-28T05:05:10.443Z,61.39
2022-10-28T05:06:10.386Z,60.91
2022-10-28T05:07:10.382Z,59.46
2022-10-28T05:08:10.372Z,60.42
2022-10-28T05:09:10.355Z,60.75
2022-10-28T05:10:10.339Z,61.55
2022-10-28T05:11:10.339Z,61.23
2022-10-28T05:12:10.347Z,60.26
2022-10-28T05:13:10.313Z,60.59
2022-10-28T05:14:11.312Z,60.75
2022-10-28T05:15:10.299Z,62.20
2022-10-28T05:16:10.291Z,61.23
2022-10-28T05:17:10.301Z,61.39
2022-10-28T05:18:10.257Z,60.59
2022-10-28T05:19:10.256Z,61.55
2022-10-28T05:20:10.249Z,61.87
2022-10-28T05:21:10.244Z,62.04
2022-10-28T05:22:10.230Z,60.75
2022-10-28T05:23:10.217Z,61.71
2022-10-28T05:24:10.202Z,62.20
2022-10-28T05:25:10.197Z,63.00
2022-10-28T05:26:10.183Z,63.97
2022-10-28T05:27:10.187Z,61.39
2022-10-28T05:28:10.162Z,61.55
2022-10-28T05:29:10.156Z,63.97
2022-10-28T05:30:10.131Z,63.65
2022-10-28T05:31:10.133Z,63.65
2022-10-28T05:32:10.144Z,62.68
2022-10-28T05:33:10.113Z,61.87
2022-10-28T05:34:10.106Z,63.49
2022-10-28T05:35:10.112Z,62.68
2022-10-28T05:36:10.075Z,62.36
2022-10-28T05:37:11.102Z,62.68
2022-10-28T05:38:10.102Z,62.52
2022-10-28T05:39:10.052Z,63.00
2022-10-28T05:40:10.050Z,64.29
2022-10-28T05:41:10.042Z,63.97
2022-10-28T05:42:10.055Z,63.00
2022-10-28T05:43:10.017Z,62.36
2022-10-28T05:44:10.015Z,63.33
2022-10-28T05:45:10.003Z,62.20
2022-10-28T05:46:09.994Z,63.33
2022-10-28T05:47:09.993Z,63.33
2022-10-28T05:48:09.968Z,63.16
2022-10-28T05:49:09.953Z,64.61
2022-10-28T05:50:09.942Z,64.45
2022-10-28T05:51:09.930Z,62.84
2022-10-28T05:52:09.934Z,61.55
2022-10-28T05:53:09.911Z,61.23
2022-10-28T05:54:09.896Z,63.33
2022-10-28T05:55:09.902Z,63.00
2022-10-28T05:56:09.882Z,62.84
2022-10-28T05:57:09.908Z,62.84
2022-10-28T05:58:09.858Z,61.55
2022-10-28T05:59:09.863Z,63.16
2022-10-28T06:00:09.847Z,62.36
2022-10-28T06:01:09.869Z,63.16
2022-10-28T06:02:09.843Z,63.49
2022-10-28T06:03:09.814Z,62.04
2022-10-28T06:04:09.872Z,62.84
2022-10-28T06:05:09.798Z,63.16
2022-10-28T06:06:09.779Z,63.65
2022-10-28T06:07:09.849Z,63.00
2022-10-28T06:08:09.765Z,61.71
2022-10-28T06:09:09.757Z,62.20
2022-10-28T06:10:09.748Z,63.65
2022-10-28T06:11:08.202Z,62.36
2022-10-28T06:12:08.210Z,63.00
2022-10-28T06:13:08.189Z,61.23
2022-10-28T06:14:08.173Z,62.52
2022-10-28T06:15:08.163Z,61.55
2022-10-28T06:16:08.156Z,60.59
2022-10-28T06:17:08.164Z,62.52
2022-10-28T06:18:08.143Z,61.87
2022-10-28T06:19:08.135Z,62.84
2022-10-28T06:20:08.124Z,61.39
2022-10-28T06:21:08.109Z,62.04
2022-10-28T06:22:08.112Z,61.87
2022-10-28T06:23:08.096Z,62.04
2022-10-28T06:24:12.081Z,62.04
2022-10-28T06:25:09.075Z,58.49
2022-10-28T06:26:08.063Z,61.07
2022-10-28T06:27:08.083Z,60.75
2022-10-28T06:28:10.322Z,60.42
2022-10-28T06:29:09.047Z,60.91
2022-10-28T06:30:08.030Z,61.07
2022-10-28T06:31:08.015Z,60.75
2022-10-28T06:32:08.030Z,60.59
2022-10-28T06:33:08.003Z,60.59
2022-10-28T06:34:07.998Z,58.65
2022-10-28T06:35:07.987Z,59.78
2022-10-28T06:36:07.976Z,59.78
2022-10-28T06:37:07.999Z,58.81
2022-10-28T06:38:09.525Z,58.33
2022-10-28T06:39:07.957Z,59.62
2022-10-28T06:40:07.950Z,58.33
2022-10-28T06:41:07.938Z,59.94
2022-10-28T06:42:07.942Z,58.97
2022-10-28T06:43:07.923Z,58.01
2022-10-28T06:44:07.907Z,57.69
2022-10-28T06:45:07.911Z,60.10
2022-10-28T06:46:07.900Z,59.46
2022-10-28T06:47:09.464Z,58.81
2022-10-28T06:48:09.389Z,59.78
2022-10-28T06:49:09.387Z,58.81
2022-10-28T06:50:09.375Z,60.75
2022-10-28T06:51:09.380Z,60.59
2022-10-28T06:52:09.381Z,59.78
2022-10-28T06:53:09.343Z,57.69
2022-10-28T06:54:09.336Z,59.78
2022-10-28T06:55:09.328Z,60.59
2022-10-28T06:56:09.319Z,59.30
2022-10-28T06:57:09.321Z,60.10
2022-10-28T06:58:09.288Z,60.75
2022-10-28T06:59:09.294Z,60.10
2022-10-28T07:00:09.292Z,58.81
2022-10-28T07:01:09.318Z,61.39
2022-10-28T07:02:09.341Z,60.75
2022-10-28T07:03:09.363Z,59.62
2022-10-28T07:04:09.242Z,59.46
2022-10-28T07:05:09.224Z,60.26
2022-10-28T07:06:09.270Z,61.07
2022-10-28T07:07:09.253Z,60.91
2022-10-28T07:08:09.205Z,60.10
2022-10-28T07:09:09.193Z,60.10
2022-10-28T07:10:09.186Z,60.26
2022-10-28T07:11:09.178Z,58.97
2022-10-28T07:12:09.230Z,59.94
2022-10-28T07:13:09.151Z,61.23
2022-10-28T07:14:09.151Z,60.26
2022-10-28T07:15:09.151Z,61.23
2022-10-28T07:16:09.138Z,60.26
2022-10-28T07:17:09.152Z,60.26
2022-10-28T07:18:09.109Z,61.39
2022-10-28T07:19:09.106Z,59.94
2022-10-28T07:20:09.097Z,60.91
2022-10-28T07:21:09.087Z,60.59
2022-10-28T07:22:09.091Z,61.23
2022-10-28T07:23:09.069Z,62.36
2022-10-28T07:24:09.066Z,60.91
2022-10-28T07:25:09.057Z,61.55
2022-10-28T07:26:09.039Z,61.07
2022-10-28T07:27:09.031Z,61.87
2022-10-28T07:28:09.044Z,61.55
2022-10-28T07:29:09.011Z,60.10
2022-10-28T07:30:08.998Z,60.91
2022-10-28T07:31:09.000Z,62.36
2022-10-28T07:32:09.014Z,61.71
2022-10-28T07:33:08.975Z,60.59
2022-10-28T07:34:08.965Z,61.87
2022-10-28T07:35:08.953Z,61.39
2022-10-28T07:36:08.950Z,60.91
2022-10-28T07:37:08.935Z,61.07
2022-10-28T07:38:08.951Z,62.36
2022-10-28T07:39:08.914Z,61.23
2022-10-28T07:40:09.916Z,61.23
2022-10-28T07:41:08.907Z,61.87
2022-10-28T07:42:08.894Z,61.71
2022-10-28T07:43:08.905Z,61.87
2022-10-28T07:44:08.879Z,59.46
2022-10-28T07:45:08.866Z,59.78
2022-10-28T07:46:08.851Z,61.55
2022-10-28T07:47:08.836Z,60.91
2022-10-28T07:48:08.845Z,60.59
2022-10-28T07:49:08.832Z,61.07
2022-10-28T07:50:08.815Z,60.26
2022-10-28T07:51:08.806Z,60.10
2022-10-28T07:52:08.799Z,61.71
2022-10-28T07:53:08.824Z,61.87
2022-10-28T07:54:08.891Z,59.30
2022-10-28T07:55:08.768Z,61.07
2022-10-28T07:56:08.754Z,60.59
2022-10-28T07:57:08.742Z,58.65
2022-10-28T07:58:08.755Z,59.30
2022-10-28T07:59:08.727Z,58.01
2022-10-28T08:00:08.712Z,60.42
2022-10-28T08:01:08.872Z,59.62
2022-10-28T08:02:08.700Z,57.36
2022-10-28T08:03:08.708Z,58.01
2022-10-28T08:04:08.655Z,57.85
2022-10-28T08:05:09.670Z,58.33
2022-10-28T08:06:08.646Z,58.49
2022-10-28T08:07:08.639Z,57.36
2022-10-28T08:08:08.645Z,59.46
2022-10-28T08:09:08.611Z,58.17
2022-10-28T08:10:08.600Z,57.52
2022-10-28T08:11:08.585Z,58.65
2022-10-28T08:12:08.575Z,58.97
2022-10-28T08:13:08.580Z,57.52
2022-10-28T08:14:08.548Z,58.17
2022-10-28T08:15:08.535Z,58.01
2022-10-28T08:16:08.544Z,59.30
2022-10-28T08:17:08.520Z,58.33
2022-10-28T08:18:08.527Z,57.69
2022-10-28T08:19:08.491Z,58.49
2022-10-28T08:20:08.500Z,57.52
2022-10-28T08:21:08.468Z,56.88
2022-10-28T08:22:08.460Z,57.04
2022-10-28T08:23:08.469Z,57.69
2022-10-28T08:24:08.435Z,57.52
2022-10-28T08:25:08.422Z,57.36
2022-10-28T08:26:08.414Z,56.72
2022-10-28T08:27:08.407Z,58.49
2022-10-28T08:28:08.399Z,57.04
2022-10-28T08:29:08.382Z,58.33
2022-10-28T08:30:08.366Z,56.40
2022-10-28T08:31:09.176Z,56.88
2022-10-28T08:32:09.344Z,55.43
2022-10-28T08:33:08.350Z,57.04
2022-10-28T08:34:08.406Z,57.36
2022-10-28T08:35:08.319Z,57.20
2022-10-28T08:36:08.304Z,57.36
2022-10-28T08:37:08.350Z,58.49
2022-10-28T08:38:08.298Z,57.52
2022-10-28T08:39:08.276Z,55.91
2022-10-28T08:40:08.274Z,57.52
2022-10-28T08:41:08.264Z,57.04
2022-10-28T08:42:08.248Z,56.88
2022-10-28T08:43:08.267Z,59.46
2022-10-28T08:44:08.229Z,58.49
2022-10-28T08:45:11.919Z,58.01
2022-10-28T08:46:09.219Z,57.20
2022-10-28T08:47:08.210Z,57.36
2022-10-28T08:48:08.218Z,57.36
2022-10-28T08:49:08.183Z,58.33
2022-10-28T08:50:08.186Z,57.36
2022-10-28T08:51:08.182Z,58.49
2022-10-28T08:52:08.169Z,58.33
2022-10-28T08:53:08.172Z,58.97
2022-10-28T08:54:08.142Z,56.40
2022-10-28T08:55:08.131Z,57.36
2022-10-28T08:56:08.116Z,56.40
2022-10-28T08:57:08.119Z,58.01
2022-10-28T08:58:08.116Z,58.49
2022-10-28T08:59:08.120Z,58.17
2022-10-28T09:00:08.083Z,57.52
2022-10-28T09:01:08.137Z,58.17
2022-10-28T09:02:08.076Z,58.97
2022-10-28T09:03:08.075Z,59.30
2022-10-28T09:04:08.049Z,58.97
2022-10-28T09:05:08.040Z,59.30
2022-10-28T09:06:08.031Z,58.49
2022-10-28T09:07:08.032Z,58.49
2022-10-28T09:08:08.014Z,58.01
2022-10-28T09:09:07.997Z,58.33
2022-10-28T09:10:07.988Z,56.88
2022-10-28T09:11:07.984Z,56.88
2022-10-28T09:12:07.965Z,58.49
2022-10-28T09:13:07.976Z,58.65
2022-10-28T09:14:07.940Z,58.49
2022-10-28T09:15:07.934Z,57.52
2022-10-28T09:16:09.362Z,56.07
2022-10-28T09:17:07.923Z,58.81
2022-10-28T09:18:07.935Z,58.97
2022-10-28T09:19:07.889Z,59.30
2022-10-28T09:20:07.873Z,56.88
2022-10-28T09:21:07.874Z,58.01
2022-10-28T09:22:07.866Z,58.17
2022-10-28T09:23:07.880Z,58.49
2022-10-28T09:24:07.855Z,59.30
2022-10-28T09:25:07.837Z,58.49
2022-10-28T09:26:07.838Z,59.46
2022-10-28T09:27:07.825Z,58.97
2022-10-28T09:28:07.822Z,58.49
2022-10-28T09:30:07.800Z,60.10
2022-10-28T09:31:07.789Z,59.46
2022-10-28T09:32:07.773Z,60.42
2022-10-28T09:33:07.797Z,57.69
2022-10-28T09:34:07.754Z,59.30
2022-10-28T09:35:07.759Z,59.62
2022-10-28T09:36:07.723Z,60.91
2022-10-28T09:37:07.723Z,60.59
2022-10-28T09:38:07.737Z,60.10
2022-10-28T09:39:07.780Z,59.30
2022-10-28T09:40:07.707Z,59.46
2022-10-28T09:41:07.684Z,59.46
2022-10-28T09:42:07.674Z,61.07
2022-10-28T09:43:07.680Z,60.42
2022-10-28T09:44:07.666Z,60.10
2022-10-28T09:45:07.654Z,60.10
2022-10-28T09:46:07.648Z,60.75
2022-10-28T09:47:07.635Z,60.42
2022-10-28T09:48:07.636Z,60.59
2022-10-28T09:49:07.607Z,60.42
2022-10-28T09:50:07.593Z,60.75
2022-10-28T09:51:07.598Z,61.23
2022-10-28T09:52:07.573Z,60.42
2022-10-28T09:53:07.584Z,61.39
2022-10-28T09:54:07.572Z,60.26
2022-10-28T09:55:07.546Z,60.10
2022-10-28T09:57:07.527Z,59.46
2022-10-28T09:58:07.536Z,59.46
2022-10-28T09:59:07.512Z,60.10
2022-10-28T10:00:07.498Z,58.65
2022-10-28T10:01:07.489Z,58.65
2022-10-28T10:02:07.590Z,60.42
2022-10-28T10:03:07.489Z,60.59
2022-10-28T10:04:07.450Z,60.75
2022-10-28T10:05:07.455Z,59.94
2022-10-28T10:06:07.442Z,60.26
2022-10-28T10:07:07.439Z,59.62
2022-10-28T10:08:32.916Z,59.30
2022-10-28T10:09:07.415Z,59.46
2022-10-28T10:10:07.402Z,58.65
2022-10-28T10:11:07.390Z,58.97
2022-10-28T10:12:08.384Z,60.59
2022-10-28T10:13:07.407Z,59.30
2022-10-28T10:14:07.366Z,59.62
2022-10-28T10:15:07.362Z,59.46
2022-10-28T10:16:07.351Z,59.94
2022-10-28T10:17:07.343Z,60.10
2022-10-28T10:18:07.354Z,60.75
2022-10-28T10:19:07.326Z,59.78
2022-10-28T10:20:07.315Z,60.59
2022-10-28T10:21:07.303Z,60.91
2022-10-28T10:22:07.301Z,58.49
2022-10-28T10:23:07.298Z,58.49
2022-10-28T10:24:07.278Z,58.65
2022-10-28T10:25:07.267Z,59.78
2022-10-28T10:26:11.099Z,60.59
2022-10-28T10:27:07.253Z,60.26
2022-10-28T10:28:07.264Z,58.65
2022-10-28T10:29:07.225Z,60.42
2022-10-28T10:30:07.219Z,60.10
2022-10-28T10:31:07.216Z,59.30
2022-10-28T10:32:07.199Z,59.62
2022-10-28T10:33:07.206Z,59.78
2022-10-28T10:34:07.181Z,59.78
2022-10-28T10:35:07.167Z,60.91
2022-10-28T10:36:07.168Z,60.75
2022-10-28T10:37:07.156Z,61.23
2022-10-28T10:38:07.145Z,59.30
2022-10-28T10:39:07.128Z,59.30
2022-10-28T10:40:07.124Z,59.94
2022-10-28T10:41:07.106Z,59.30
2022-10-28T10:42:07.093Z,59.78
2022-10-28T10:43:13.653Z,60.42
2022-10-28T10:44:09.087Z,60.42
2022-10-28T10:45:07.073Z,59.78
2022-10-28T10:46:07.059Z,58.33
2022-10-28T10:47:07.051Z,59.78
2022-10-28T10:48:07.064Z,60.42
2022-10-28T10:49:07.037Z,59.30
2022-10-28T10:50:07.026Z,59.78
2022-10-28T10:51:07.015Z,60.10
2022-10-28T10:52:07.008Z,60.26
2022-10-28T10:53:07.014Z,59.94
2022-10-28T10:54:06.993Z,60.10
2022-10-28T10:55:06.980Z,59.78
2022-10-28T10:56:06.970Z,59.14
2022-10-28T10:57:06.988Z,59.46
2022-10-28T10:58:07.034Z,58.65
2022-10-28T10:59:06.925Z,59.62
2022-10-28T11:00:07.926Z,59.62
2022-10-28T11:01:06.927Z,60.10
2022-10-28T11:02:06.997Z,60.10
2022-10-28T11:03:06.978Z,59.14
2022-10-28T11:04:06.896Z,60.26
2022-10-28T11:05:06.883Z,59.94
2022-10-28T11:06:23.887Z,59.62
2022-10-28T11:07:08.865Z,59.78
2022-10-28T11:08:06.868Z,59.78
2022-10-28T11:09:06.863Z,60.10
2022-10-28T11:10:06.822Z,59.14
2022-10-28T11:11:06.815Z,61.55
2022-10-28T11:12:06.806Z,59.14
2022-10-28T11:13:06.817Z,59.94
2022-10-28T11:14:06.791Z,58.49
2022-10-28T11:15:06.777Z,58.17
2022-10-28T11:16:06.779Z,60.42
2022-10-28T11:17:06.755Z,59.14
2022-10-28T11:18:06.767Z,59.30
2022-10-28T11:19:06.744Z,58.81
2022-10-28T11:20:06.740Z,58.97
2022-10-28T11:21:06.733Z,58.49
2022-10-28T11:22:06.715Z,57.04
2022-10-28T11:23:06.723Z,58.81
2022-10-28T11:24:06.699Z,59.14
2022-10-28T11:25:06.692Z,59.46
2022-10-28T11:26:06.677Z,60.10
2022-10-28T11:27:06.675Z,59.14
2022-10-28T11:28:06.678Z,60.59
2022-10-28T11:29:06.642Z,60.10
2022-10-28T11:30:06.628Z,60.10
2022-10-28T11:32:06.612Z,60.26
2022-10-28T11:33:24.758Z,60.26
2022-10-28T11:34:08.608Z,60.10
2022-10-28T11:35:06.595Z,61.55
2022-10-28T11:36:06.579Z,60.10
2022-10-28T11:37:06.564Z,58.81
2022-10-28T11:38:07.430Z,59.78
2022-10-28T11:39:06.572Z,60.42
2022-10-28T11:40:06.538Z,59.46
2022-10-28T11:41:06.529Z,59.30
2022-10-28T11:42:06.517Z,59.62
2022-10-28T11:43:06.529Z,60.10
2022-10-28T11:44:06.500Z,59.30
2022-10-28T11:45:06.494Z,59.14
2022-10-28T11:46:06.487Z,58.97
2022-10-28T11:47:06.475Z,59.14
2022-10-28T11:48:06.477Z,60.42
2022-10-28T11:49:06.446Z,60.26
2022-10-28T11:50:06.437Z,59.46
2022-10-28T11:51:06.450Z,60.10
2022-10-28T11:52:06.415Z,58.65
2022-10-28T11:53:06.439Z,59.46
2022-10-28T11:54:06.390Z,59.14
2022-10-28T11:55:06.386Z,58.49
2022-10-28T11:56:06.385Z,59.94
2022-10-28T11:57:06.372Z,60.42
2022-10-28T11:58:06.405Z,60.26
2022-10-28T11:59:06.355Z,59.46
2022-10-28T12:00:06.352Z,59.78
2022-10-28T12:01:06.333Z,60.42
2022-10-28T12:02:06.547Z,60.10
2022-10-28T12:03:06.411Z,59.94
2022-10-28T12:04:06.298Z,58.65
2022-10-28T12:05:06.286Z,58.81
2022-10-28T12:06:06.258Z,59.62
2022-10-28T12:07:06.255Z,59.94
2022-10-28T12:08:06.277Z,60.42
2022-10-28T12:10:06.216Z,58.97
2022-10-28T12:11:06.214Z,59.94
2022-10-28T12:12:06.209Z,60.10
2022-10-28T12:13:06.188Z,59.46
2022-10-28T12:14:06.342Z,59.62
2022-10-28T12:15:06.175Z,60.10
2022-10-28T12:16:06.171Z,60.42
2022-10-28T12:17:06.177Z,60.75
2022-10-28T12:18:06.468Z,59.14
2022-10-28T12:19:06.165Z,60.59
2022-10-28T12:20:06.134Z,60.10
2022-10-28T12:21:06.198Z,58.81
2022-10-28T12:22:06.124Z,60.42
2022-10-28T12:23:06.108Z,60.42
2022-10-28T12:24:06.180Z,59.94
2022-10-28T12:25:06.134Z,60.91
2022-10-28T12:26:06.067Z,60.91
2022-10-28T12:27:06.068Z,60.26
2022-10-28T12:28:06.092Z,60.42
2022-10-28T12:29:06.069Z,60.59
2022-10-28T12:30:06.014Z,60.26
2022-10-28T12:31:06.051Z,60.10
2022-10-28T12:32:06.015Z,61.07
2022-10-28T12:33:06.005Z,61.23
2022-10-28T12:34:05.993Z,60.91
2022-10-28T12:35:05.994Z,60.10
2022-10-28T12:36:05.970Z,60.42
2022-10-28T12:37:05.971Z,60.26
2022-10-28T12:38:05.956Z,61.23
2022-10-28T12:39:05.953Z,60.59
2022-10-28T12:40:05.933Z,60.10
2022-10-28T12:41:05.904Z,60.91
2022-10-28T12:42:05.910Z,60.59
2022-10-28T12:43:05.902Z,60.10
2022-10-28T12:44:05.906Z,60.59
2022-10-28T12:45:05.896Z,60.10
2022-10-28T12:46:05.866Z,61.07
2022-10-28T12:47:05.873Z,60.91
2022-10-28T12:48:05.847Z,60.75
2022-10-28T12:49:05.853Z,60.59
2022-10-28T12:50:05.845Z,60.75
2022-10-28T12:51:05.824Z,61.07
2022-10-28T12:52:05.812Z,59.94
2022-10-28T12:53:05.795Z,60.10
2022-10-28T12:54:05.823Z,59.78
2022-10-28T12:55:05.854Z,60.91
2022-10-28T12:56:06.802Z,60.75